createdAt,value
2023-01-09T00:01:53.497Z,4.88
2023-01-09T00:04:21.445Z,5.10
2023-01-09T00:06:54.072Z,5.63
2023-01-09T00:09:22.904Z,5.15
2023-01-09T00:11:51.512Z,5.32
2023-01-09T00:14:20.831Z,6.00
2023-01-09T00:16:48.817Z,5.90
2023-01-09T00:19:16.829Z,5.72
2023-01-09T00:21:44.799Z,5.30
2023-01-09T00:24:12.753Z,5.13
2023-01-09T00:26:40.717Z,5.72
2023-01-09T00:29:11.789Z,5.15
2023-01-09T00:31:41.091Z,5.65
2023-01-09T00:34:11.474Z,7.03
2023-01-09T00:36:39.425Z,6.10
2023-01-09T00:39:07.360Z,4.78
2023-01-09T00:41:38.674Z,5.68
2023-01-09T00:44:10.012Z,5.50
2023-01-09T00:46:42.241Z,5.93
2023-01-09T00:49:14.155Z,5.38
2023-01-09T00:51:42.968Z,5.68
2023-01-09T00:54:13.927Z,5.43
2023-01-09T00:56:41.995Z,5.45
2023-01-09T00:59:10.239Z,6.80
2023-01-09T01:01:38.261Z,5.65
2023-01-09T01:04:20.210Z,5.68
2023-01-09T01:07:06.741Z,5.68
2023-01-09T01:09:34.664Z,5.93
2023-01-09T01:12:07.026Z,5.53
2023-01-09T01:14:35.587Z,5.90
2023-01-09T01:17:03.696Z,6.40
2023-01-09T01:19:31.740Z,5.80
2023-01-09T01:22:01.018Z,5.30
2023-01-09T01:24:28.986Z,5.75
2023-01-09T01:26:57.011Z,6.10
2023-01-09T01:29:25.005Z,5.97
2023-01-09T01:31:53.687Z,5.78
2023-01-09T01:34:21.636Z,5.85
2023-01-09T01:36:49.574Z,6.07
2023-01-09T01:39:18.951Z,6.00
2023-01-09T01:41:46.946Z,5.82
2023-01-09T01:45:01.955Z,6.03
2023-01-09T01:47:46.704Z,5.13
2023-01-09T01:50:22.103Z,6.25
2023-01-09T01:52:56.224Z,5.95
2023-01-09T01:55:25.979Z,5.57
2023-01-09T01:57:59.645Z,5.05
2023-01-09T02:00:32.307Z,5.70
2023-01-09T02:03:01.872Z,5.25
2023-01-09T02:05:30.232Z,5.63
2023-01-09T02:07:58.195Z,5.93
2023-01-09T02:10:28.010Z,5.32
2023-01-09T02:12:55.965Z,5.78
2023-01-09T02:15:24.055Z,5.95
2023-01-09T02:18:08.636Z,5.68
2023-01-09T02:20:40.640Z,5.93
2023-01-09T02:23:39.193Z,6.45
2023-01-09T02:26:39.420Z,5.05
2023-01-09T02:29:48.912Z,5.65
2023-01-09T02:32:32.908Z,5.60
2023-01-09T02:35:12.511Z,5.87
2023-01-09T02:37:48.521Z,6.22
2023-01-09T02:40:24.353Z,6.03
2023-01-09T02:42:53.994Z,5.68
2023-01-09T02:45:22.127Z,5.45
2023-01-09T02:47:51.441Z,5.65
2023-01-09T02:50:23.469Z,5.75
2023-01-09T02:53:24.650Z,7.03
2023-01-09T02:56:03.186Z,6.28
2023-01-09T02:58:46.854Z,6.20
2023-01-09T03:01:26.650Z,5.65
2023-01-09T03:04:03.438Z,6.32
2023-01-09T03:06:37.389Z,6.63
2023-01-09T03:09:09.655Z,5.97
2023-01-09T03:11:43.387Z,6.38
2023-01-09T03:14:14.789Z,6.68
2023-01-09T03:16:46.649Z,6.40
2023-01-09T03:19:20.441Z,6.82
2023-01-09T03:21:48.975Z,5.57
2023-01-09T03:24:17.011Z,6.50
2023-01-09T03:26:45.345Z,6.45
2023-01-09T03:29:13.266Z,7.25
2023-01-09T03:31:41.208Z,6.18
2023-01-09T03:34:09.186Z,7.30
2023-01-09T03:36:38.505Z,6.55
2023-01-09T03:39:06.485Z,6.35
2023-01-09T03:41:34.487Z,6.28
2023-01-09T03:44:02.489Z,6.60
2023-01-09T03:46:30.348Z,6.47
2023-01-09T03:48:58.334Z,7.53
2023-01-09T03:51:26.356Z,6.85
2023-01-09T03:53:55.621Z,6.82
2023-01-09T03:56:23.554Z,6.93
2023-01-09T03:58:52.937Z,6.35
2023-01-09T04:01:20.976Z,6.50
2023-01-09T04:03:49.020Z,7.07
2023-01-09T04:06:16.948Z,6.63
2023-01-09T04:08:46.277Z,6.75
2023-01-09T04:11:17.536Z,6.72
2023-01-09T04:13:45.941Z,6.85
2023-01-09T04:16:13.808Z,6.68
2023-01-09T04:18:42.055Z,6.60
2023-01-09T04:21:10.025Z,6.88
2023-01-09T04:23:37.916Z,17.63
2023-01-09T04:26:06.078Z,7.80
2023-01-09T04:28:35.335Z,7.50
2023-01-09T04:31:03.268Z,6.75
2023-01-09T04:33:31.174Z,7.38
2023-01-09T04:35:59.049Z,7.15
2023-01-09T04:38:27.405Z,6.85
2023-01-09T04:40:55.307Z,6.93
2023-01-09T04:43:23.195Z,6.18
2023-01-09T04:45:53.545Z,7.45
2023-01-09T04:48:21.500Z,7.35
2023-01-09T04:50:49.459Z,7.07
2023-01-09T04:53:17.360Z,8.38
2023-01-09T04:55:45.269Z,7.32
2023-01-09T04:58:13.180Z,7.20
2023-01-09T05:00:41.064Z,7.47
2023-01-09T05:03:10.291Z,7.13
2023-01-09T05:05:38.184Z,6.97
2023-01-09T05:08:06.947Z,7.65
2023-01-09T05:10:34.835Z,7.05
2023-01-09T05:13:02.737Z,8.40
2023-01-09T05:15:30.968Z,7.15
2023-01-09T05:17:58.869Z,6.93
2023-01-09T05:20:28.172Z,7.07
2023-01-09T05:22:56.132Z,6.53
2023-01-09T05:25:23.994Z,6.97
2023-01-09T05:27:51.964Z,7.78
2023-01-09T05:30:20.049Z,6.60
2023-01-09T05:32:47.936Z,7.70
2023-01-09T05:35:15.949Z,6.78
2023-01-09T05:37:45.493Z,6.82
2023-01-09T05:40:14.074Z,7.30
2023-01-09T05:42:43.478Z,6.63
2023-01-09T05:45:12.468Z,7.25
2023-01-09T05:47:40.684Z,7.22
2023-01-09T05:50:09.510Z,7.05
2023-01-09T05:52:37.468Z,6.30
2023-01-09T05:55:08.331Z,7.05
2023-01-09T05:57:36.289Z,7.80
2023-01-09T06:00:04.827Z,7.35
2023-01-09T06:02:35.025Z,8.05
2023-01-09T06:05:03.055Z,7.32
2023-01-09T06:07:30.996Z,6.82
2023-01-09T06:09:58.864Z,7.75
2023-01-09T06:12:28.145Z,7.45
2023-01-09T06:14:56.108Z,7.22
2023-01-09T06:17:24.058Z,7.10
2023-01-09T06:19:52.402Z,7.35
2023-01-09T06:22:20.317Z,7.28
2023-01-09T06:24:48.232Z,7.10
2023-01-09T06:27:16.143Z,7.05
2023-01-09T06:29:45.502Z,7.13
2023-01-09T06:32:13.420Z,7.32
2023-01-09T06:34:41.316Z,7.63
2023-01-09T06:37:09.285Z,9.65
2023-01-09T06:39:37.547Z,8.55
2023-01-09T06:42:05.574Z,7.90
2023-01-09T06:44:36.433Z,8.52
2023-01-09T06:47:05.869Z,8.02
2023-01-09T06:49:33.805Z,8.55
2023-01-09T06:52:05.409Z,7.78
2023-01-09T06:54:33.304Z,7.97
2023-01-09T06:57:01.586Z,8.73
2023-01-09T06:59:29.475Z,8.10
2023-01-09T07:01:57.400Z,8.93
2023-01-09T07:04:26.789Z,7.95
2023-01-09T07:06:54.855Z,7.40
2023-01-09T07:09:22.734Z,8.40
2023-01-09T07:11:50.627Z,7.32
2023-01-09T07:14:18.511Z,7.07
2023-01-09T07:16:46.409Z,7.63
2023-01-09T07:19:14.393Z,7.55
2023-01-09T07:21:43.666Z,6.80
2023-01-09T07:24:11.752Z,7.43
2023-01-09T07:26:39.713Z,7.00
2023-01-09T07:29:07.660Z,6.47
2023-01-09T07:31:35.624Z,10.77
2023-01-09T07:34:03.976Z,8.05
2023-01-09T07:36:31.860Z,7.53
2023-01-09T07:39:01.189Z,8.00
2023-01-09T07:41:29.174Z,7.20
2023-01-09T07:43:58.146Z,7.35
2023-01-09T07:46:26.239Z,6.32
2023-01-09T07:48:54.258Z,6.93
2023-01-09T07:51:22.335Z,7.05
2023-01-09T07:53:50.341Z,6.65
2023-01-09T07:56:19.555Z,12.68
2023-01-09T07:58:48.671Z,8.93
2023-01-09T08:01:16.969Z,7.85
2023-01-09T08:03:45.017Z,7.20
2023-01-09T08:06:12.902Z,6.95
2023-01-09T08:08:40.929Z,8.40
2023-01-09T08:11:08.887Z,7.82
2023-01-09T08:13:38.337Z,7.90
2023-01-09T08:16:07.064Z,8.80
2023-01-09T08:18:35.055Z,8.27
2023-01-09T08:21:02.977Z,7.63
2023-01-09T08:23:30.948Z,7.90
2023-01-09T08:25:58.880Z,7.40
2023-01-09T08:28:29.317Z,7.60
2023-01-09T08:30:58.676Z,8.10
2023-01-09T08:33:26.673Z,9.68
2023-01-09T08:35:55.260Z,19.63
2023-01-09T08:38:23.194Z,11.13
2023-01-09T08:40:51.489Z,9.05
2023-01-09T08:43:36.905Z,13.82
2023-01-09T08:46:24.839Z,8.93
2023-01-09T08:48:52.807Z,8.57
2023-01-09T08:51:20.675Z,10.20
2023-01-09T08:53:48.661Z,8.35
2023-01-09T08:56:16.586Z,6.70
2023-01-09T08:58:44.919Z,6.55
2023-01-09T09:01:14.438Z,6.43
2023-01-09T09:03:45.021Z,7.07
2023-01-09T09:06:13.316Z,7.25
2023-01-09T09:08:47.036Z,7.13
2023-01-09T09:11:22.374Z,7.70
2023-01-09T09:13:53.420Z,6.65
2023-01-09T09:16:25.718Z,6.82
2023-01-09T09:18:54.826Z,6.18
2023-01-09T09:21:22.915Z,6.30
2023-01-09T09:23:50.940Z,6.22
2023-01-09T09:26:18.956Z,6.32
2023-01-09T09:28:47.177Z,5.40
2023-01-09T09:31:15.342Z,6.18
2023-01-09T09:33:44.900Z,6.63
2023-01-09T09:36:13.169Z,7.50
2023-01-09T09:38:48.089Z,6.57
2023-01-09T09:41:51.213Z,6.45
2023-01-09T09:44:53.327Z,5.50
2023-01-09T09:47:38.304Z,7.05
2023-01-09T09:50:26.524Z,5.95
2023-01-09T09:53:01.363Z,6.38
2023-01-09T09:55:34.700Z,5.82
2023-01-09T09:58:05.747Z,6.53
2023-01-09T10:00:34.227Z,12.60
2023-01-09T10:03:06.176Z,22.83
2023-01-09T10:05:38.237Z,7.18
2023-01-09T10:08:16.304Z,6.20
2023-01-09T10:10:53.747Z,6.40
2023-01-09T10:13:42.757Z,6.20
2023-01-09T10:16:26.928Z,6.38
2023-01-09T10:19:09.111Z,5.90
2023-01-09T10:21:47.365Z,7.28
2023-01-09T10:24:26.796Z,6.13
2023-01-09T10:26:55.200Z,7.32
2023-01-09T10:29:41.915Z,6.60
2023-01-09T10:32:27.258Z,5.80
2023-01-09T10:35:06.867Z,5.50
2023-01-09T10:37:41.601Z,6.22
2023-01-09T10:40:19.279Z,4.80
2023-01-09T10:42:51.571Z,5.57
2023-01-09T10:45:25.023Z,4.97
2023-01-09T10:48:00.823Z,5.25
2023-01-09T10:50:32.642Z,4.30
2023-01-09T10:53:13.705Z,5.10
2023-01-09T10:55:47.623Z,4.82
2023-01-09T10:58:17.257Z,3.88
2023-01-09T11:00:58.184Z,4.43
2023-01-09T11:03:30.083Z,4.05
2023-01-09T11:08:42.760Z,4.13
2023-01-09T11:11:12.738Z,3.70
2023-01-09T11:13:46.690Z,3.50
2023-01-09T11:16:19.038Z,3.78
2023-01-09T11:18:52.584Z,3.85
2023-01-09T11:21:35.595Z,3.10
2023-01-09T11:27:23.345Z,3.90
2023-01-09T11:30:26.192Z,3.42
2023-01-09T11:32:55.360Z,3.50
2023-01-09T11:35:27.584Z,3.58
2023-01-09T11:38:07.053Z,3.38
2023-01-09T11:40:47.472Z,3.33
2023-01-09T11:43:21.631Z,2.85
2023-01-09T11:46:01.220Z,3.53
2023-01-09T11:48:41.609Z,3.47
2023-01-09T11:51:21.419Z,8.68
2023-01-09T11:54:05.396Z,3.80
2023-01-09T11:56:33.528Z,3.45
2023-01-09T11:59:02.857Z,3.08
2023-01-09T12:01:59.291Z,2.47
2023-01-09T12:04:31.034Z,2.33
2023-01-09T12:07:20.437Z,2.60
2023-01-09T12:09:57.482Z,2.08
2023-01-09T12:12:32.860Z,2.17
2023-01-09T12:15:17.401Z,2.55
2023-01-09T12:18:23.568Z,2.47
2023-01-09T12:21:17.076Z,1.90
2023-01-09T12:24:01.398Z,2.00
2023-01-09T12:26:33.415Z,1.83
2023-01-09T12:29:18.647Z,2.33
2023-01-09T12:32:05.363Z,1.73
2023-01-09T12:34:49.261Z,1.65
2023-01-09T12:37:50.594Z,1.60
2023-01-09T12:40:33.748Z,1.60
2023-01-09T12:43:13.486Z,2.28
2023-01-09T12:45:55.675Z,1.40
2023-01-09T12:48:44.020Z,1.50
2023-01-09T12:51:26.595Z,1.40
2023-01-09T12:54:00.481Z,1.58
2023-01-09T12:56:37.411Z,1.70
2023-01-09T12:59:22.516Z,1.70
2023-01-09T13:01:51.569Z,1.60
2023-01-09T13:04:25.631Z,1.38
2023-01-09T13:06:59.333Z,2.30
2023-01-09T13:09:30.412Z,1.25
2023-01-09T13:12:06.193Z,1.60
2023-01-09T13:14:46.528Z,5.35
2023-01-09T13:17:21.789Z,13.00
2023-01-09T13:19:53.108Z,1.55
2023-01-09T13:22:25.032Z,1.52
2023-01-09T13:25:15.838Z,1.30
2023-01-09T13:27:50.325Z,1.20
2023-01-09T13:30:39.312Z,1.10
2023-01-09T13:33:18.550Z,1.67
2023-01-09T13:35:53.606Z,1.20
2023-01-09T13:38:25.207Z,1.20
2023-01-09T13:41:20.884Z,1.70
2023-01-09T13:43:57.933Z,2.10
2023-01-09T13:46:36.630Z,1.17
2023-01-09T13:49:05.308Z,1.60
2023-01-09T13:51:59.704Z,1.55
2023-01-09T13:55:19.221Z,1.40
2023-01-09T13:58:22.510Z,1.30
2023-01-09T14:00:56.132Z,1.08
2023-01-09T14:03:28.231Z,1.13
2023-01-09T14:06:19.197Z,1.27
2023-01-09T14:08:51.696Z,1.20
2023-01-09T14:11:24.011Z,1.20
2023-01-09T14:14:08.025Z,1.48
2023-01-09T14:16:38.023Z,1.33
2023-01-09T14:19:18.801Z,1.00
2023-01-09T14:21:50.373Z,1.30
2023-01-09T14:24:29.793Z,1.23
2023-01-09T14:26:59.978Z,1.10
2023-01-09T14:29:45.540Z,1.58
2023-01-09T14:32:41.933Z,1.27
2023-01-09T14:35:26.460Z,1.60
2023-01-09T14:38:04.136Z,1.40
2023-01-09T14:40:35.201Z,2.08
2023-01-09T14:43:14.014Z,1.45
2023-01-09T14:45:49.662Z,1.05
2023-01-09T14:48:20.578Z,1.10
2023-01-09T14:50:55.314Z,1.10
2023-01-09T14:53:27.010Z,1.30
2023-01-09T14:55:57.829Z,1.17
2023-01-09T14:58:28.042Z,1.15
2023-01-09T15:01:01.829Z,1.20
2023-01-09T15:03:35.409Z,1.50
2023-01-09T15:06:04.119Z,1.17
2023-01-09T15:08:33.436Z,1.63
2023-01-09T15:11:03.295Z,1.30
2023-01-09T15:13:37.839Z,1.85
2023-01-09T15:16:07.789Z,1.20
2023-01-09T15:18:41.568Z,1.15
2023-01-09T15:21:18.470Z,1.17
2023-01-09T15:23:49.828Z,1.20
2023-01-09T15:26:27.390Z,1.80
2023-01-09T15:29:02.133Z,1.42
2023-01-09T15:31:30.461Z,1.52
2023-01-09T15:33:58.688Z,2.00
2023-01-09T15:36:30.842Z,1.88
2023-01-09T15:39:00.064Z,2.08
2023-01-09T15:41:48.731Z,2.67
2023-01-09T15:44:20.339Z,2.05
2023-01-09T15:46:50.319Z,1.92
2023-01-09T15:49:20.171Z,1.77
2023-01-09T15:51:49.879Z,1.63
2023-01-09T15:54:22.032Z,1.73
2023-01-09T15:56:51.395Z,1.88
2023-01-09T15:59:27.922Z,1.83
2023-01-09T16:02:20.656Z,2.00
2023-01-09T16:04:49.860Z,2.17
2023-01-09T16:07:20.926Z,1.50
2023-01-09T16:09:52.559Z,1.60
2023-01-09T16:12:24.764Z,1.80
2023-01-09T16:14:55.704Z,1.65
2023-01-09T16:17:27.445Z,1.40
2023-01-09T16:19:57.908Z,1.60
2023-01-09T16:22:27.683Z,1.20
2023-01-09T16:24:57.681Z,1.50
2023-01-09T16:27:30.677Z,1.27
2023-01-09T16:29:59.636Z,2.70
2023-01-09T16:32:30.551Z,2.20
2023-01-09T16:35:04.639Z,1.40
2023-01-09T16:37:34.478Z,1.30
2023-01-09T16:40:25.912Z,1.40
2023-01-09T16:43:01.265Z,1.10
2023-01-09T16:45:32.187Z,1.30
2023-01-09T16:48:01.048Z,1.23
2023-01-09T16:50:29.569Z,1.30
2023-01-09T16:52:58.391Z,1.30
2023-01-09T16:55:26.485Z,1.40
2023-01-09T16:57:59.804Z,1.52
2023-01-09T17:00:32.031Z,3.28
2023-01-09T17:03:23.220Z,4.25
2023-01-09T17:05:53.344Z,3.03
2023-01-09T17:08:23.145Z,4.00
2023-01-09T17:10:51.221Z,3.72
2023-01-09T17:13:20.617Z,2.92
2023-01-09T17:15:49.072Z,1.73
2023-01-09T17:18:19.631Z,2.30
2023-01-09T17:20:49.509Z,1.90
2023-01-09T17:23:17.513Z,1.67
2023-01-09T17:26:03.332Z,1.50
2023-01-09T17:28:32.864Z,1.20
2023-01-09T17:31:01.372Z,1.17
2023-01-09T17:33:29.447Z,1.45
2023-01-09T17:35:57.902Z,3.15
2023-01-09T17:38:26.140Z,1.20
2023-01-09T17:40:55.771Z,2.10
2023-01-09T17:43:23.848Z,1.00
2023-01-09T17:45:53.225Z,1.25
2023-01-09T17:48:23.256Z,0.90
2023-01-09T17:50:51.244Z,1.00
2023-01-09T17:53:20.670Z,1.20
2023-01-09T17:55:48.678Z,1.35
2023-01-09T17:58:26.155Z,1.05
2023-01-09T18:00:55.531Z,1.05
2023-01-09T18:03:25.903Z,0.90
2023-01-09T18:05:54.016Z,1.10
2023-01-09T18:08:22.088Z,3.15
2023-01-09T18:10:50.051Z,1.17
2023-01-09T18:13:18.325Z,0.82
2023-01-09T18:15:47.250Z,0.90
2023-01-09T18:18:17.148Z,1.33
2023-01-09T18:20:46.132Z,1.08
2023-01-09T18:23:14.699Z,1.00
2023-01-09T18:25:43.072Z,1.65
2023-01-09T18:28:15.000Z,1.38
2023-01-09T18:30:45.460Z,1.10
2023-01-09T18:33:14.433Z,1.08
2023-01-09T18:35:44.148Z,1.15
2023-01-09T18:38:13.658Z,0.98
2023-01-09T18:40:41.939Z,0.88
2023-01-09T18:43:11.392Z,0.88
2023-01-09T18:45:39.758Z,1.00
2023-01-09T18:48:09.469Z,0.88
2023-01-09T18:50:37.588Z,0.80
2023-01-09T18:53:07.476Z,1.17
2023-01-09T18:55:37.714Z,0.90
2023-01-09T18:58:06.331Z,1.20
2023-01-09T19:00:34.710Z,1.10
2023-01-09T19:03:02.714Z,1.33
2023-01-09T19:05:33.001Z,0.93
2023-01-09T19:08:00.945Z,0.90
2023-01-09T19:10:30.401Z,2.80
2023-01-09T19:12:58.384Z,2.08
2023-01-09T19:15:27.633Z,1.98
2023-01-09T19:17:57.182Z,1.70
2023-01-09T19:20:25.181Z,2.03
2023-01-09T19:22:53.264Z,2.05
2023-01-09T19:25:21.336Z,2.03
2023-01-09T19:27:50.651Z,2.10
2023-01-09T19:30:19.323Z,2.58
2023-01-09T19:32:47.287Z,2.00
2023-01-09T19:35:17.429Z,1.40
2023-01-09T19:37:45.629Z,1.77
2023-01-09T19:40:14.122Z,1.40
2023-01-09T19:42:42.114Z,1.58
2023-01-09T19:45:11.838Z,1.55
2023-01-09T19:47:40.145Z,1.38
2023-01-09T19:50:09.285Z,8.10
2023-01-09T19:52:37.536Z,4.03
2023-01-09T19:55:05.990Z,1.33
2023-01-09T19:57:34.067Z,1.10
2023-01-09T20:00:02.715Z,1.40
2023-01-09T20:02:44.647Z,1.45
2023-01-09T20:05:12.742Z,1.27
2023-01-09T20:07:42.671Z,5.40
2023-01-09T20:10:11.631Z,1.80
2023-01-09T20:12:39.788Z,1.17
2023-01-09T20:15:12.685Z,1.17
2023-01-09T20:17:42.203Z,0.90
2023-01-09T20:20:11.383Z,0.98
2023-01-09T20:22:39.370Z,1.10
2023-01-09T20:25:10.200Z,1.00
2023-01-09T20:27:38.324Z,0.90
2023-01-09T20:30:07.676Z,1.10
2023-01-09T20:32:36.987Z,1.13
2023-01-09T20:35:07.158Z,0.88
2023-01-09T20:37:35.120Z,1.23
2023-01-09T20:40:04.168Z,0.82
2023-01-09T20:42:32.199Z,1.05
2023-01-09T20:45:00.146Z,1.38
2023-01-09T20:47:29.112Z,1.80
2023-01-09T20:49:57.074Z,0.88
2023-01-09T20:52:26.329Z,1.30
2023-01-09T20:54:54.269Z,1.20
2023-01-09T20:57:22.180Z,1.23
2023-01-09T20:59:50.177Z,1.30
2023-01-09T21:02:18.480Z,1.75
2023-01-09T21:04:46.505Z,1.27
2023-01-09T21:07:14.500Z,1.17
2023-01-09T21:09:43.779Z,1.20
2023-01-09T21:12:27.446Z,1.08
2023-01-09T21:14:55.892Z,2.15
2023-01-09T21:17:24.131Z,0.98
2023-01-09T21:19:52.119Z,0.93
2023-01-09T21:22:20.333Z,1.00
2023-01-09T21:24:51.314Z,0.82
2023-01-09T21:27:19.444Z,0.93
2023-01-09T21:29:47.420Z,1.00
2023-01-09T21:32:15.341Z,0.80
2023-01-09T21:34:43.225Z,0.90
2023-01-09T21:37:11.117Z,1.17
2023-01-09T21:39:39.033Z,0.80
2023-01-09T21:42:26.853Z,0.90
2023-01-09T21:45:12.005Z,0.80
2023-01-09T21:47:39.969Z,1.42
2023-01-09T21:50:09.179Z,0.93
2023-01-09T21:52:37.634Z,1.17
2023-01-09T21:55:06.661Z,1.00
2023-01-09T21:57:36.085Z,1.10
2023-01-09T22:00:04.686Z,1.00
2023-01-09T22:02:41.003Z,1.58
2023-01-09T22:05:09.307Z,1.00
2023-01-09T22:07:37.296Z,0.90
2023-01-09T22:10:05.988Z,1.08
2023-01-09T22:12:34.039Z,0.93
2023-01-09T22:15:03.459Z,1.10
2023-01-09T22:17:31.510Z,0.80
2023-01-09T22:19:59.455Z,0.90
2023-01-09T22:22:27.482Z,1.10
2023-01-09T22:24:55.327Z,1.50
2023-01-09T22:27:23.233Z,1.20
2023-01-09T22:29:51.176Z,0.90
2023-01-09T22:32:22.525Z,1.20
2023-01-09T22:34:50.468Z,0.73
2023-01-09T22:37:18.399Z,0.93
2023-01-09T22:39:46.405Z,0.90
2023-01-09T22:42:16.589Z,1.08
2023-01-09T22:44:44.499Z,1.40
2023-01-09T22:47:12.386Z,1.10
2023-01-09T22:49:52.281Z,0.90
2023-01-09T22:52:20.843Z,0.90
2023-01-09T22:54:48.981Z,0.90
2023-01-09T22:57:16.930Z,1.30
2023-01-09T22:59:44.793Z,1.48
2023-01-09T23:02:12.782Z,0.82
2023-01-09T23:04:42.076Z,1.00
2023-01-09T23:07:09.998Z,1.27
2023-01-09T23:09:38.147Z,1.00
2023-01-09T23:12:06.740Z,1.40
2023-01-09T23:14:36.782Z,1.45
2023-01-09T23:17:05.700Z,1.30
2023-01-09T23:19:34.053Z,1.50
2023-01-09T23:22:04.549Z,1.33
2023-01-09T23:24:33.074Z,1.20
2023-01-09T23:27:01.049Z,1.42
2023-01-09T23:29:29.831Z,1.60
2023-01-09T23:31:58.098Z,1.10
2023-01-09T23:34:27.513Z,1.05
2023-01-09T23:36:57.312Z,1.10
2023-01-09T23:39:26.804Z,1.00
2023-01-09T23:42:12.010Z,1.20
2023-01-09T23:44:39.981Z,1.00
2023-01-09T23:47:08.472Z,1.27
2023-01-09T23:49:36.483Z,1.27
2023-01-09T23:52:06.012Z,1.00
2023-01-09T23:54:35.326Z,1.00
2023-01-09T23:57:03.194Z,1.00
2023-01-09T23:59:31.133Z,1.38
